Endeavour — C6BE4 — position and weather

sailwx.info

Track history (hours):
 
Tides and Currents Weather Stations Pressure Air Temp Water Temp Dewpoint Dewpoint Depression Visibility Wind Speed Wind Dir Waves Ship Positions

Endeavour

Operator: Lindblad Expeditions

Last reported at 2018-Nov-08 17:23 UTC. Time now 2018-Dec-11 06:54 UTC.
Position N 29°60' W 090°28'.
Warning: this ship's position is 32 days out of date.

Length 190 m; draft 6.7 m.

Type: Cargo ship. MMSI: 311000239.

Date/timePositionNaut miles runAvg speedWind from/ knotsBaromVisibWave heightAir tempDewpointWater temp
2018-Nov-08 17:23N 29°60' W 090°28'3 8.7
2018-Nov-08 17:02N 29°59' W 090°25'4 7.5
2018-Nov-08 16:32N 29°56' W 090°22'3 5.8
2018-Nov-08 16:00N 29°57' W 090°18'0 0.1
2018-Nov-08 15:30N 29°57' W 090°18'0 0.0
2018-Nov-08 15:00N 29°57' W 090°18'0 0.0
2018-Nov-08 14:30N 29°57' W 090°18'0 0.0
2018-Nov-08 14:00N 29°57' W 090°18'0 0.0
2018-Nov-08 13:30N 29°57' W 090°18'0 0.0
2018-Nov-08 13:00N 29°57' W 090°18'0 0.0
2018-Nov-08 12:27N 29°57' W 090°18'0 0.0
2018-Nov-08 12:00N 29°57' W 090°18'0 0.0
2018-Nov-08 11:30N 29°57' W 090°18'0 0.0
2018-Nov-08 10:57N 29°57' W 090°18'0 0.0
2018-Nov-08 10:27N 29°57' W 090°18'0 0.0
2018-Nov-08 09:54N 29°57' W 090°18'0 0.0
2018-Nov-08 09:27N 29°57' W 090°18'0 0.0
2018-Nov-08 08:57N 29°57' W 090°18'0 0.0
2018-Nov-08 08:27N 29°57' W 090°18'0 0.0
2018-Nov-08 08:00N 29°57' W 090°18'0 0.0
2018-Nov-08 07:30N 29°57' W 090°18'0 0.0
2018-Nov-08 07:00N 29°57' W 090°18'0 0.0
2018-Nov-08 06:30N 29°57' W 090°18'0 0.0
2018-Nov-08 06:00N 29°57' W 090°18'0 0.0
2018-Nov-08 05:30N 29°57' W 090°18'0 0.0
2018-Nov-08 05:00N 29°57' W 090°18'0 0.0
2018-Nov-08 04:21N 29°57' W 090°18'0 0.0
2018-Nov-08 03:54N 29°57' W 090°18'0 0.0
2018-Nov-08 03:30N 29°57' W 090°18'0 0.0
2018-Nov-08 03:00N 29°57' W 090°18'0 0.0
2018-Nov-08 02:30N 29°57' W 090°18'0 0.0
2018-Nov-08 01:54N 29°57' W 090°18'0 0.0
2018-Nov-08 01:30N 29°57' W 090°18'0 0.0
2018-Nov-08 01:03N 29°57' W 090°18'0 0.2
2018-Nov-08 00:43N 29°57' W 090°18'0 1.9
2018-Nov-08 00:32N 29°57' W 090°18'0 2.6
2018-Nov-08 00:29N 29°57' W 090°18'2 3.7
2018-Nov-08 00:02N 29°58' W 090°16'3 7.1
2018-Nov-07 23:33N 29°56' W 090°13'4 7.6
2018-Nov-07 23:03N 29°57' W 090°09'4 7.4
2018-Nov-07 22:33N 29°55' W 090°06'4 7.7
2018-Nov-07 22:02N 29°58' W 090°03'2 4.4
2018-Nov-07 21:32N 29°57' W 090°01'1 2.9
2018-Nov-07 21:02N 29°56' W 089°59'4 7.2
2018-Nov-07 20:32N 29°55' W 089°55'3 5.8
2018-Nov-07 20:02N 29°52' W 089°56'0 0.2
2018-Nov-07 19:30N 29°52' W 089°56'0 0.0
2018-Nov-07 18:57N 29°52' W 089°56'0 0.0
2018-Nov-07 18:24N 29°52' W 089°56'0 0.0
2018-Nov-07 17:57N 29°52' W 089°56'0 0.0
2018-Nov-07 17:27N 29°52' W 089°56'0 0.0
2018-Nov-07 17:00N 29°52' W 089°56'0 0.0
2018-Nov-07 16:30N 29°52' W 089°56'0 0.0
2018-Nov-07 15:54N 29°52' W 089°56'0 0.0
2018-Nov-07 15:30N 29°52' W 089°56'0 0.0
2018-Nov-07 15:00N 29°52' W 089°56'0 0.0
2018-Nov-07 14:27N 29°52' W 089°56'0 0.0
2018-Nov-07 14:00N 29°52' W 089°56'0 0.0
2018-Nov-07 13:27N 29°52' W 089°56'0 0.0
2018-Nov-07 13:00N 29°52' W 089°56'0 0.0
2018-Nov-07 12:27N 29°52' W 089°56'0 0.0
2018-Nov-07 11:57N 29°52' W 089°56'0 0.0
2018-Nov-07 11:30N 29°52' W 089°56'0 0.0
2018-Nov-07 11:00N 29°52' W 089°56'0 0.0
2018-Nov-07 10:27N 29°52' W 089°56'0 0.0
2018-Nov-07 09:57N 29°52' W 089°56'0 0.0
2018-Nov-07 09:18N 29°52' W 089°56'0 0.0
2018-Nov-07 08:57N 29°52' W 089°56'0 0.0
2018-Nov-07 08:30N 29°52' W 089°56'0 0.0
2018-Nov-07 07:54N 29°52' W 089°56'0 0.0
2018-Nov-07 07:27N 29°52' W 089°56'0 0.0
2018-Nov-07 07:00N 29°52' W 089°56'0 0.0
2018-Nov-07 06:30N 29°52' W 089°56'0 0.0
2018-Nov-07 06:00N 29°52' W 089°56'0 0.0
2018-Nov-07 05:27N 29°52' W 089°56'0 0.0
2018-Nov-07 04:57N 29°52' W 089°56'0 0.0
2018-Nov-07 04:30N 29°52' W 089°56'0 0.0
2018-Nov-06 23:30N 29°52' W 089°56'0 0.0
2018-Nov-06 23:03N 29°52' W 089°56'0 0.1
2018-Nov-06 23:00N 29°52' W 089°56'0 0.0
2018-Nov-06 21:57N 29°52' W 089°56'0 0.0
2018-Nov-06 21:30N 29°52' W 089°56'0 0.0
2018-Nov-06 21:03N 29°52' W 089°56'0 0.0
2018-Nov-06 20:54N 29°52' W 089°56'0 0.0
2018-Nov-06 20:30N 29°52' W 089°56'0 0.0
2018-Nov-06 20:03N 29°52' W 089°56'0 0.0
2018-Nov-06 19:57N 29°52' W 089°56'0 0.0
2018-Nov-06 19:30N 29°52' W 089°56'0 0.0
2018-Nov-06 19:03N 29°52' W 089°56'0 0.1
2018-Nov-06 19:00N 29°52' W 089°56'0 0.0
2018-Nov-06 18:30N 29°52' W 089°56'0 0.0
2018-Nov-06 18:03N 29°52' W 089°56'0 0.0
2018-Nov-06 18:00N 29°52' W 089°56'0 0.0
2018-Nov-06 17:30N 29°52' W 089°56'0 0.0
2018-Nov-06 16:57N 29°52' W 089°56'0 0.0
2018-Nov-06 16:30N 29°52' W 089°56'0 0.0
2018-Nov-06 16:03N 29°52' W 089°56'0 0.0
2018-Nov-06 15:51N 29°52' W 089°56'0 0.0
2018-Nov-06 15:30N 29°52' W 089°56'0 0.0
2018-Nov-06 14:57N 29°52' W 089°56'0 0.0
2018-Nov-06 14:27N 29°52' W 089°56'0 0.0
2018-Nov-06 14:03N 29°52' W 089°56'0 0.2
2018-Nov-06 14:00N 29°52' W 089°56'0 0.0
2018-Nov-06 12:24N 29°52' W 089°56'0 0.0
2018-Nov-06 12:03N 29°52' W 089°56'0 0.1
2018-Nov-06 11:57N 29°52' W 089°56'0 0.0
2018-Nov-06 11:27N 29°52' W 089°56'0 0.0
2018-Nov-06 11:03N 29°52' W 089°56'0 0.1
2018-Nov-06 11:00N 29°52' W 089°56'0 0.0
2018-Nov-06 10:30N 29°52' W 089°56'0 0.0
2018-Nov-06 10:03N 29°52' W 089°56'0 0.1
2018-Nov-06 09:57N 29°52' W 089°56'0 0.0
2018-Nov-06 09:27N 29°52' W 089°56'0 0.0
2018-Nov-06 09:03N 29°52' W 089°56'0 0.0
2018-Nov-06 09:00N 29°52' W 089°56'0 0.0
2018-Nov-06 08:30N 29°52' W 089°56'0 0.0
2018-Nov-06 08:03N 29°52' W 089°56'0 0.0
2018-Nov-06 07:57N 29°52' W 089°56'0 0.0
2018-Nov-06 07:30N 29°52' W 089°56'0 0.0
2018-Nov-06 07:03N 29°52' W 089°56'0 0.0
2018-Nov-06 07:00N 29°52' W 089°56'0 0.0
2018-Nov-06 06:30N 29°52' W 089°56'0 0.0
2018-Nov-06 06:00N 29°52' W 089°56'0 0.0
2018-Nov-06 05:30N 29°52' W 089°56'0 0.0
2018-Nov-06 05:03N 29°52' W 089°56'0 0.0
2018-Nov-06 05:00N 29°52' W 089°56'0 0.0
2018-Nov-06 04:30N 29°52' W 089°56'0 0.0
2018-Nov-06 04:03N 29°52' W 089°56'0 0.0
2018-Nov-06 04:00N 29°52' W 089°56'0 0.0
2018-Nov-06 03:30N 29°52' W 089°56'0 0.0
2018-Nov-06 03:03N 29°52' W 089°56'0 0.1
2018-Nov-06 02:57N 29°52' W 089°56'0 0.0
2018-Nov-06 02:24N 29°52' W 089°56'0 0.0
2018-Nov-06 01:54N 29°52' W 089°56'0 0.0
2018-Nov-06 01:27N 29°52' W 089°56'0 0.0
2018-Nov-06 01:03N 29°52' W 089°56'0 0.0
2018-Nov-05 23:30N 29°52' W 089°56'0 0.0
2018-Nov-05 23:03N 29°52' W 089°56'0 0.1
2018-Nov-05 23:00N 29°52' W 089°56'0 0.0
2018-Nov-05 22:27N 29°52' W 089°56'0 0.0
2018-Nov-05 22:03N 29°52' W 089°56'0 0.0
2018-Nov-05 21:57N 29°52' W 089°56'0 0.0
2018-Nov-05 21:27N 29°52' W 089°56'0 0.0
2018-Nov-05 20:57N 29°52' W 089°56'0 0.0
2018-Nov-05 20:27N 29°52' W 089°56'0 0.0
2018-Nov-05 20:00N 29°52' W 089°56'0 0.0
2018-Nov-05 19:27N 29°52' W 089°56'0 0.0
2018-Nov-05 19:03N 29°52' W 089°56'0 0.1
2018-Nov-05 18:57N 29°52' W 089°56'0 0.0
2018-Nov-05 18:30N 29°52' W 089°56'0 0.0
2018-Nov-05 18:03N 29°52' W 089°56'0 0.2
2018-Nov-05 18:00N 29°52' W 089°56'0 0.0
2018-Nov-05 17:30N 29°52' W 089°56'0 0.0
2018-Nov-05 17:03N 29°52' W 089°56'0 0.1
2018-Nov-05 17:00N 29°52' W 089°56'0 0.0
2018-Nov-05 16:30N 29°52' W 089°56'0 0.0
2018-Nov-05 16:03N 29°52' W 089°56'0 0.0
2018-Nov-05 15:57N 29°52' W 089°56'0 0.0
2018-Nov-05 15:30N 29°52' W 089°56'0 0.0
2018-Nov-05 15:03N 29°52' W 089°56'0 0.0
2018-Nov-05 15:00N 29°52' W 089°56'0 0.0
2018-Nov-05 14:30N 29°52' W 089°56'0 0.0
2018-Nov-05 14:00N 29°52' W 089°56'0 0.0
2018-Nov-05 13:03N 29°52' W 089°56'0 0.0
2018-Nov-05 12:54N 29°52' W 089°56'0 0.0
2018-Nov-05 12:27N 29°52' W 089°56'0 0.0
2018-Nov-05 12:03N 29°52' W 089°56'0 0.0
2018-Nov-05 12:00N 29°52' W 089°56'0 0.0
2018-Nov-05 11:30N 29°52' W 089°56'0 0.0
2018-Nov-05 11:00N 29°52' W 089°56'0 0.0
2018-Nov-05 10:30N 29°52' W 089°56'0 0.0
2018-Nov-05 10:03N 29°52' W 089°56'0 0.0
2018-Nov-05 10:00N 29°52' W 089°56'0 0.0
2018-Nov-05 09:30N 29°52' W 089°56'0 0.0
2018-Nov-05 09:03N 29°52' W 089°56'0 0.2
2018-Nov-05 09:00N 29°52' W 089°56'0 0.0
2018-Nov-05 08:30N 29°52' W 089°56'0 0.0
2018-Nov-05 08:03N 29°52' W 089°56'0 0.0
2018-Nov-05 08:00N 29°52' W 089°56'0 0.0
2018-Nov-05 07:30N 29°52' W 089°56'0 0.0
2018-Nov-05 07:03N 29°52' W 089°56'0 0.0
2018-Nov-05 07:00N 29°52' W 089°56'0 0.0
2018-Nov-05 06:30N 29°52' W 089°56'0 0.0
2018-Nov-05 05:57N 29°52' W 089°56'0 0.0
2018-Nov-05 05:30N 29°52' W 089°56'0 0.0
2018-Nov-05 05:00N 29°52' W 089°56'0 0.0
2018-Nov-05 04:30N 29°52' W 089°56'0 0.0
2018-Nov-05 04:00N 29°52' W 089°56'0 0.0
2018-Nov-05 03:27N 29°52' W 089°56'0 0.0
2018-Nov-05 03:03N 29°52' W 089°56'0 0.0
2018-Nov-05 03:00N 29°52' W 089°56'0 0.0
2018-Nov-05 02:30N 29°52' W 089°56'0 0.0
2018-Nov-05 02:03N 29°52' W 089°56'0 0.0
2018-Nov-05 01:45N 29°52' W 089°56'0 0.0
2018-Nov-05 01:30N 29°52' W 089°56'0 0.0
2018-Nov-05 01:03N 29°52' W 089°56'0 0.1
2018-Nov-05 00:57N 29°52' W 089°56'0 0.0
2018-Nov-05 00:30N 29°52' W 089°56'0 0.0
2018-Nov-04 23:54N 29°52' W 089°56'0 0.0
2018-Nov-04 23:24N 29°52' W 089°56'0 0.0
2018-Nov-04 23:03N 29°52' W 089°56'0 0.1
2018-Nov-04 23:00N 29°52' W 089°56'0 0.0
2018-Nov-04 22:27N 29°52' W 089°56'0 0.0
2018-Nov-04 22:03N 29°52' W 089°56'0 0.0
2018-Nov-04 22:00N 29°52' W 089°56'0 0.0
2018-Nov-04 21:30N 29°52' W 089°56'0 0.0
2018-Nov-04 21:03N 29°52' W 089°56'0 0.0
2018-Nov-04 20:42N 29°52' W 089°56'0 0.0
2018-Nov-04 20:30N 29°52' W 089°56'0 0.0
2018-Nov-04 19:57N 29°52' W 089°56'0 0.0
2018-Nov-04 19:27N 29°52' W 089°56'0 0.0
2018-Nov-04 19:03N 29°52' W 089°56'0 0.0
2018-Nov-04 18:51N 29°52' W 089°56'0 0.0
2018-Nov-04 18:30N 29°52' W 089°56'0 0.0
2018-Nov-04 18:03N 29°52' W 089°56'0 0.0
2018-Nov-04 17:57N 29°52' W 089°56'0 0.0
2018-Nov-04 17:30N 29°52' W 089°56'0 0.0
2018-Nov-04 16:57N 29°52' W 089°56'0 0.0
2018-Nov-04 16:21N 29°52' W 089°56'0 0.0
2018-Nov-04 16:00N 29°52' W 089°56'0 0.0
2018-Nov-04 15:27N 29°52' W 089°56'0 0.0
2018-Nov-04 15:03N 29°52' W 089°56'0 0.0
2018-Nov-04 14:57N 29°52' W 089°56'0 0.0
2018-Nov-04 14:30N 29°52' W 089°56'0 0.0
2018-Nov-04 14:03N 29°52' W 089°56'0 0.0
2018-Nov-04 14:00N 29°52' W 089°56'0 0.0
2018-Nov-04 13:27N 29°52' W 089°56'0 0.0
2018-Nov-04 12:57N 29°52' W 089°56'0 0.0
2018-Nov-04 12:30N 29°52' W 089°56'0 0.0
2018-Nov-04 12:03N 29°52' W 089°56'0 0.1
2018-Nov-04 12:00N 29°52' W 089°56'0 0.0
2018-Nov-04 11:30N 29°52' W 089°56'0 0.0
2018-Nov-04 11:03N 29°52' W 089°56'0 0.1
2018-Nov-04 11:00N 29°52' W 089°56'0 0.0
2018-Nov-04 10:30N 29°52' W 089°56'0 0.0
2018-Nov-04 10:03N 29°52' W 089°56'0 0.1
2018-Nov-04 10:00N 29°52' W 089°56'0 0.0
2018-Nov-04 09:27N 29°52' W 089°56'0 0.0
2018-Nov-04 09:03N 29°52' W 089°56'0 0.0
2018-Nov-04 09:00N 29°52' W 089°56'0 0.0
2018-Nov-04 08:30N 29°52' W 089°56'0 0.0
2018-Nov-04 08:03N 29°52' W 089°56'0 0.0
2018-Nov-04 07:57N 29°52' W 089°56'0 0.0
2018-Nov-04 07:30N 29°52' W 089°56'0 0.0
2018-Nov-04 07:03N 29°52' W 089°56'0 0.0
2018-Nov-04 07:00N 29°52' W 089°56'0 0.0
2018-Nov-04 06:30N 29°52' W 089°56'0 0.0
2018-Nov-04 06:03N 29°52' W 089°56'0 0.0
2018-Nov-04 05:48N 29°52' W 089°56'0 0.0
2018-Nov-04 05:30N 29°52' W 089°56'0 0.0
2018-Nov-04 05:03N 29°52' W 089°56'0 0.2
2018-Nov-04 05:00N 29°52' W 089°56'0 0.0
2018-Nov-04 04:27N 29°52' W 089°56'0 0.0
2018-Nov-04 04:03N 29°52' W 089°56'0 0.0
2018-Nov-04 03:54N 29°52' W 089°56'0 0.0
2018-Nov-04 03:27N 29°52' W 089°56'0 0.0
2018-Nov-04 03:00N 29°52' W 089°56'0 0.0
2018-Nov-04 02:30N 29°52' W 089°56'0 0.0
2018-Nov-04 02:03N 29°52' W 089°56'0 0.1
2018-Nov-04 02:00N 29°52' W 089°56'0 0.0
2018-Nov-04 01:24N 29°52' W 089°56'0 0.0
2018-Nov-04 01:03N 29°52' W 089°56'0 0.0
2018-Nov-04 00:57N 29°52' W 089°56'0 0.0
2018-Nov-04 00:30N 29°52' W 089°56'0 0.0
2018-Nov-04 00:00N 29°52' W 089°56'0 0.0
2018-Nov-03 23:27N 29°52' W 089°56'0 0.0
2018-Nov-03 23:03N 29°52' W 089°56'0 0.0
2018-Nov-03 23:00N 29°52' W 089°56'0 0.0
2018-Nov-03 22:30N 29°52' W 089°56'0 0.0
2018-Nov-03 20:27N 29°52' W 089°56'0 0.0
2018-Nov-03 20:03N 29°52' W 089°56'0 0.1
2018-Nov-03 19:57N 29°52' W 089°56'0 0.0
2018-Nov-03 19:24N 29°52' W 089°56'0 0.0
2018-Nov-03 19:03N 29°52' W 089°56'0 0.0
2018-Nov-03 18:54N 29°52' W 089°56'0 0.0
2018-Nov-03 18:27N 29°52' W 089°56'0 0.0
2018-Nov-03 18:00N 29°52' W 089°56'0 0.0
2018-Nov-03 17:27N 29°52' W 089°56'0 0.0
2018-Nov-03 17:03N 29°52' W 089°56'0 0.1
2018-Nov-03 17:00N 29°52' W 089°56'0 0.0
2018-Nov-03 16:30N 29°52' W 089°56'0 0.0
2018-Nov-03 16:03N 29°52' W 089°56'0 0.1
2018-Nov-03 16:00N 29°52' W 089°56'0 0.0
2018-Nov-03 15:30N 29°52' W 089°56'0 0.0
2018-Nov-03 15:03N 29°52' W 089°56'0 0.1
2018-Nov-03 15:00N 29°52' W 089°56'0 0.0
2018-Nov-03 14:30N 29°52' W 089°56'0 0.0
2018-Nov-03 14:03N 29°52' W 089°56'0 0.0
2018-Nov-03 14:00N 29°52' W 089°56'0 0.0
2018-Nov-03 13:30N 29°52' W 089°56'0 0.0
2018-Nov-03 13:03N 29°52' W 089°56'0 0.0
2018-Nov-03 13:00N 29°52' W 089°56'0 0.0
2018-Nov-03 12:30N 29°52' W 089°56'0 0.0
2018-Nov-03 12:03N 29°52' W 089°56'0 0.1
2018-Nov-03 11:57N 29°52' W 089°56'0 0.0
2018-Nov-03 11:30N 29°52' W 089°56'0 0.0
2018-Nov-03 11:00N 29°52' W 089°56'0 0.0
2018-Nov-03 10:27N 29°52' W 089°56'0 0.0
2018-Nov-03 09:57N 29°52' W 089°56'0 0.0
2018-Nov-03 09:30N 29°52' W 089°56'0 0.0
2018-Nov-03 09:03N 29°52' W 089°56'0 0.0
2018-Nov-03 08:54N 29°52' W 089°56'0 0.0
2018-Nov-03 08:30N 29°52' W 089°56'0 0.0
2018-Nov-03 07:54N 29°52' W 089°56'0 0.0
2018-Nov-03 07:24N 29°52' W 089°56'0 0.0
2018-Nov-03 07:03N 29°52' W 089°56'0 0.0
2018-Nov-03 07:00N 29°52' W 089°56'0 0.0
2018-Nov-03 06:30N 29°52' W 089°56'0 0.0
2018-Nov-03 06:03N 29°52' W 089°56'0 0.0
2018-Nov-03 05:57N 29°52' W 089°56'0 0.0
2018-Nov-03 05:30N 29°52' W 089°56'0 0.0
2018-Nov-03 05:00N 29°52' W 089°56'0 0.0
2018-Nov-03 04:30N 29°52' W 089°56'0 0.0
2018-Nov-03 04:03N 29°52' W 089°56'0 0.0
2018-Nov-03 03:54N 29°52' W 089°56'0 0.0
2018-Nov-03 03:30N 29°52' W 089°56'0 0.0
2018-Nov-03 03:00N 29°52' W 089°56'0 0.0
2018-Nov-03 02:21N 29°52' W 089°56'0 0.0
2018-Nov-03 02:00N 29°52' W 089°56'0 0.0
2018-Nov-03 01:30N 29°52' W 089°56'0 0.0
2018-Nov-03 01:03N 29°52' W 089°56'0 0.0
2018-Nov-03 01:00N 29°52' W 089°56'0 0.0
2018-Nov-03 00:24N 29°52' W 089°56'0 0.0
2018-Nov-03 00:03N 29°52' W 089°56'0 0.0
2018-Nov-03 00:00N 29°52' W 089°56'0 0.0
2018-Nov-02 23:30N 29°52' W 089°56'0 0.0
2018-Nov-02 23:00N 29°52' W 089°56'0 0.0
2018-Nov-02 22:27N 29°52' W 089°56'0 0.0
2018-Nov-02 22:03N 29°52' W 089°56'0 0.2
2018-Nov-02 22:00N 29°52' W 089°56'0 0.0
2018-Nov-02 21:30N 29°52' W 089°56'0 0.0
2018-Nov-02 21:03N 29°52' W 089°56'0 0.1
2018-Nov-02 21:00N 29°52' W 089°56'0 0.0
2018-Nov-02 20:27N 29°52' W 089°56'0 0.0
2018-Nov-02 20:03N 29°52' W 089°56'0 0.1
2018-Nov-02 20:00N 29°52' W 089°56'0 0.0
2018-Nov-02 19:27N 29°52' W 089°56'0 0.0
2018-Nov-02 19:03N 29°52' W 089°56'0 0.1
2018-Nov-02 19:00N 29°52' W 089°56'0 0.0
2018-Nov-02 18:30N 29°52' W 089°56'0 0.0
2018-Nov-02 18:03N 29°52' W 089°56'0 0.2
2018-Nov-02 18:00N 29°52' W 089°56'0 0.0
2018-Nov-02 17:30N 29°52' W 089°56'0 0.0
2018-Nov-02 17:03N 29°52' W 089°56'0 0.0
2018-Nov-02 16:54N 29°52' W 089°56'0 0.0
2018-Nov-02 16:30N 29°52' W 089°56'0 0.0
2018-Nov-02 16:03N 29°52' W 089°56'0 0.0
2018-Nov-02 15:57N 29°52' W 089°56'0 0.0
2018-Nov-02 15:30N 29°52' W 089°56'0 0.0
2018-Nov-02 15:03N 29°52' W 089°56'0 0.0
2018-Nov-02 15:00N 29°52' W 089°56'0 0.0
2018-Nov-02 14:30N 29°52' W 089°56'0 0.0
2018-Nov-02 14:00N 29°52' W 089°56'0 0.0
2018-Nov-02 13:27N 29°52' W 089°56'0 0.0
2018-Nov-02 13:03N 29°52' W 089°56'0 0.0
2018-Nov-02 12:57N 29°52' W 089°56'0 0.0
2018-Nov-02 12:27N 29°52' W 089°56'0 0.0
2018-Nov-02 12:03N 29°52' W 089°56'0 0.1
2018-Nov-02 12:00N 29°52' W 089°56'0 0.0
2018-Nov-02 11:30N 29°52' W 089°56'0 0.0
2018-Nov-02 11:03N 29°52' W 089°56'0 0.0
2018-Nov-02 10:51N 29°52' W 089°56'0 0.0
2018-Nov-02 10:27N 29°52' W 089°56'0 0.0
2018-Nov-02 10:00N 29°52' W 089°56'0 0.0
2018-Nov-02 09:27N 29°52' W 089°56'0 0.0
2018-Nov-02 09:03N 29°52' W 089°56'0 0.0
2018-Nov-02 09:00N 29°52' W 089°56'0 0.0
2018-Nov-02 08:30N 29°52' W 089°56'0 0.0
2018-Nov-02 08:00N 29°52' W 089°56'0 0.0
2018-Nov-02 07:27N 29°52' W 089°56'0 0.0
2018-Nov-02 07:03N 29°52' W 089°56'0 0.1
2018-Nov-02 07:00N 29°52' W 089°56'0 0.0
2018-Nov-02 06:27N 29°52' W 089°56'0 0.0
2018-Nov-02 06:03N 29°52' W 089°56'0 0.1
2018-Nov-02 05:57N 29°52' W 089°56'0 0.0
2018-Nov-02 05:27N 29°52' W 089°56'0 0.1
2018-Nov-02 05:00N 29°52' W 089°56'0 0.0
2018-Nov-02 04:27N 29°52' W 089°56'0 0.0
2018-Nov-02 04:03N 29°52' W 089°56'0 0.1
2018-Nov-02 04:00N 29°52' W 089°56'0 0.0
2018-Nov-02 03:30N 29°52' W 089°56'0 0.0
2018-Nov-02 03:03N 29°52' W 089°56'0 0.0
2018-Nov-02 03:00N 29°52' W 089°56'0 0.0
2018-Nov-02 02:27N 29°52' W 089°56'0 0.0
2018-Nov-02 02:03N 29°52' W 089°56'0 0.0
2018-Nov-02 02:00N 29°52' W 089°56'0 0.0
2018-Nov-02 01:30N 29°52' W 089°56'0 0.0
2018-Nov-02 01:03N 29°52' W 089°56'0 0.1
2018-Nov-02 01:00N 29°52' W 089°56'0 0.0
2018-Nov-02 00:54N 29°52' W 089°56'0 0.0
2018-Nov-02 00:36N 29°52' W 089°56'0 0.0
2018-Nov-02 00:27N 29°52' W 089°56'0 0.0
2018-Nov-02 00:03N 29°52' W 089°56'0 0.0
2018-Nov-02 00:00N 29°52' W 089°56'0 0.0
2018-Nov-01 23:30N 29°52' W 089°56'0 0.0
2018-Nov-01 23:03N 29°52' W 089°56'0 0.0
2018-Nov-01 23:00N 29°52' W 089°56'0 0.0
2018-Nov-01 22:27N 29°52' W 089°56'0 0.0
2018-Nov-01 22:00N 29°52' W 089°56'0 0.0
2018-Nov-01 21:30N 29°52' W 089°56'0 0.0
2018-Nov-01 21:03N 29°52' W 089°56'0 0.0
2018-Nov-01 20:54N 29°52' W 089°56'0 0.0
2018-Nov-01 20:30N 29°52' W 089°56'0 0.0
2018-Nov-01 20:03N 29°52' W 089°56'0 0.2
2018-Nov-01 20:00N 29°52' W 089°56'0 0.0
2018-Nov-01 19:30N 29°52' W 089°56'0 0.0
2018-Nov-01 18:57N 29°52' W 089°56'0 0.0
2018-Nov-01 18:30N 29°52' W 089°56'0 0.0
2018-Nov-01 18:03N 29°52' W 089°56'0 0.1
2018-Nov-01 18:00N 29°52' W 089°56'0 0.0
2018-Nov-01 17:30N 29°52' W 089°56'0 0.0
2018-Nov-01 17:03N 29°52' W 089°56'0 0.0
2018-Nov-01 17:00N 29°52' W 089°56'0 0.0
2018-Nov-01 16:27N 29°52' W 089°56'0 0.0
2018-Nov-01 15:54N 29°52' W 089°56'0 0.0
2018-Nov-01 15:30N 29°52' W 089°56'0 0.0
2018-Nov-01 15:03N 29°52' W 089°56'0 0.2
2018-Nov-01 15:00N 29°52' W 089°56'0 0.0
2018-Nov-01 13:57N 29°52' W 089°56'0 0.0
2018-Nov-01 13:27N 29°52' W 089°56'0 0.0
2018-Nov-01 13:03N 29°52' W 089°56'0 0.0
2018-Nov-01 13:00N 29°52' W 089°56'0 0.0
2018-Nov-01 12:30N 29°52' W 089°56'0 0.0
2018-Nov-01 12:03N 29°52' W 089°56'0 0.1
2018-Nov-01 11:57N 29°52' W 089°56'0 0.0
2018-Nov-01 11:27N 29°52' W 089°56'0 0.0
2018-Nov-01 11:03N 29°52' W 089°56'0 0.1
2018-Nov-01 11:00N 29°52' W 089°56'0 0.1
2018-Nov-01 10:24N 29°52' W 089°56'0 0.1
2018-Nov-01 10:03N 29°52' W 089°56'0 0.1
2018-Nov-01 10:00N 29°52' W 089°56'0 0.0
2018-Nov-01 09:30N 29°52' W 089°56'0 0.1
2018-Nov-01 09:03N 29°52' W 089°56'0 0.1
2018-Nov-01 08:57N 29°52' W 089°56'0 0.0
2018-Nov-01 08:27N 29°52' W 089°56'0 0.0
2018-Nov-01 08:03N 29°52' W 089°56'0 0.2
2018-Nov-01 08:00N 29°52' W 089°56'0 0.0
2018-Nov-01 07:30N 29°52' W 089°56'0 0.0
2018-Nov-01 07:03N 29°52' W 089°56'0 0.1
2018-Nov-01 07:00N 29°52' W 089°56'0 0.0
2018-Nov-01 06:27N 29°52' W 089°56'0 0.0
2018-Nov-01 06:03N 29°52' W 089°56'0 0.1
2018-Nov-01 05:57N 29°52' W 089°56'0 0.0
2018-Nov-01 05:30N 29°52' W 089°56'0 0.0
2018-Nov-01 05:03N 29°52' W 089°56'0 0.1
2018-Nov-01 05:00N 29°52' W 089°56'0 0.0
2018-Nov-01 04:30N 29°52' W 089°56'0 0.0
2018-Nov-01 04:03N 29°52' W 089°56'0 0.0
2018-Nov-01 04:00N 29°52' W 089°56'0 0.0
2018-Nov-01 03:30N 29°52' W 089°56'0 0.0
2018-Nov-01 02:57N 29°52' W 089°56'0 0.0
2018-Nov-01 02:30N 29°52' W 089°56'0 0.0
2018-Nov-01 02:00N 29°52' W 089°56'0 0.0
2018-Nov-01 01:24N 29°52' W 089°56'0 0.0
2018-Nov-01 01:03N 29°52' W 089°56'0 0.0
2018-Nov-01 01:00N 29°52' W 089°56'0 0.0
2018-Nov-01 00:30N 29°52' W 089°56'0 0.0
2018-Oct-31 23:51N 29°52' W 089°56'0 0.0
2018-Oct-31 23:27N 29°52' W 089°56'0 0.0
2018-Oct-31 23:00N 29°52' W 089°56'0 0.0
2018-Oct-31 22:27N 29°52' W 089°56'0 0.0
2018-Oct-31 22:00N 29°52' W 089°56'0 0.0
2018-Oct-31 21:24N 29°52' W 089°56'0 0.0
2018-Oct-31 21:03N 29°52' W 089°56'0 0.1
2018-Oct-31 21:00N 29°52' W 089°56'0 0.0
2018-Oct-31 20:30N 29°52' W 089°56'0 0.0
2018-Oct-31 20:00N 29°52' W 089°56'0 0.0
2018-Oct-31 19:30N 29°52' W 089°56'0 0.0
2018-Oct-31 19:03N 29°52' W 089°56'0 0.1
2018-Oct-31 18:57N 29°52' W 089°56'0 0.0
2018-Oct-31 18:27N 29°52' W 089°56'0 0.0
2018-Oct-31 18:03N 29°52' W 089°56'0 0.2
2018-Oct-31 18:00N 29°52' W 089°56'0 0.0
2018-Oct-31 17:30N 29°52' W 089°56'0 0.0
2018-Oct-31 16:54N 29°52' W 089°56'0 0.0
2018-Oct-31 16:27N 29°52' W 089°56'0 0.0
2018-Oct-31 16:03N 29°52' W 089°56'0 0.1
2018-Oct-31 16:00N 29°52' W 089°56'0 0.0
2018-Oct-31 15:30N 29°52' W 089°56'0 0.0
2018-Oct-31 14:57N 29°52' W 089°56'0 0.0
2018-Oct-31 14:03N 29°52' W 089°56'0 0.0
2018-Oct-31 13:57N 29°52' W 089°56'0 0.0
2018-Oct-31 13:30N 29°52' W 089°56'0 0.0
2018-Oct-31 13:00N 29°52' W 089°56'0 0.0
2018-Oct-31 12:27N 29°52' W 089°56'0 0.0
2018-Oct-31 12:03N 29°52' W 089°56'0 0.1
2018-Oct-31 12:00N 29°52' W 089°56'0 0.0
2018-Oct-31 11:30N 29°52' W 089°56'0 0.0
2018-Oct-31 11:03N 29°52' W 089°56'0 0.1
2018-Oct-31 10:57N 29°52' W 089°56'0 0.0
2018-Oct-31 10:30N 29°52' W 089°56'0 0.0
2018-Oct-31 10:00N 29°52' W 089°56'0 0.0
2018-Oct-31 09:30N 29°52' W 089°56'0 0.0
2018-Oct-31 09:03N 29°52' W 089°56'0 0.0
2018-Oct-31 09:00N 29°52' W 089°56'0 0.0
2018-Oct-31 08:18N 29°52' W 089°56'0 0.0
2018-Oct-31 08:00N 29°52' W 089°56'0 0.0
2018-Oct-31 07:30N 29°52' W 089°56'0 0.0
2018-Oct-31 07:03N 29°52' W 089°56'0 0.1
2018-Oct-31 06:57N 29°52' W 089°56'0 0.0
2018-Oct-31 06:30N 29°52' W 089°56'0 0.0
2018-Oct-31 06:00N 29°52' W 089°56'0 0.0
2018-Oct-31 05:30N 29°52' W 089°56'0 0.0
2018-Oct-31 05:03N 29°52' W 089°56'0 0.0
2018-Oct-31 05:00N 29°52' W 089°56'0 0.0
2018-Oct-31 04:30N 29°52' W 089°56'0 0.0
2018-Oct-31 04:03N 29°52' W 089°56'0 0.1
2018-Oct-31 03:57N 29°52' W 089°56'0 0.0
2018-Oct-31 03:30N 29°52' W 089°56'0 0.0
2018-Oct-31 03:03N 29°52' W 089°56'0 0.0
2018-Oct-31 03:00N 29°52' W 089°56'0 0.0
2018-Oct-31 02:27N 29°52' W 089°56'0 0.0
2018-Oct-31 02:03N 29°52' W 089°56'0 0.1
2018-Oct-31 01:57N 29°52' W 089°56'0 0.0
2018-Oct-31 01:30N 29°52' W 089°56'0 0.0
2018-Oct-31 01:03N 29°52' W 089°56'0 0.0
2018-Oct-31 00:57N 29°52' W 089°56'0 0.0
2018-Oct-31 00:30N 29°52' W 089°56'0 0.0
2018-Oct-30 23:57N 29°52' W 089°56'0 0.0
2018-Oct-30 23:27N 29°52' W 089°56'0 0.0
2018-Oct-30 23:03N 29°52' W 089°56'0 0.0
2018-Oct-30 23:00N 29°52' W 089°56'0 0.0
2018-Oct-30 22:30N 29°52' W 089°56'0 0.0
2018-Oct-30 22:03N 29°52' W 089°56'0 0.0
2018-Oct-30 21:57N 29°52' W 089°56'0 0.0
2018-Oct-30 21:24N 29°52' W 089°56'0 0.0
2018-Oct-30 21:00N 29°52' W 089°56'0 0.0
2018-Oct-30 20:30N 29°52' W 089°56'0 0.0
2018-Oct-30 20:03N 29°52' W 089°56'0 0.0
2018-Oct-30 20:00N 29°52' W 089°56'0 0.0
2018-Oct-30 19:30N 29°52' W 089°56'0 0.0
2018-Oct-30 19:03N 29°52' W 089°56'0 0.0
2018-Oct-30 18:54N 29°52' W 089°56'0 0.0
2018-Oct-30 18:27N 29°52' W 089°56'0 0.0
2018-Oct-30 18:00N 29°52' W 089°56'0 0.0
2018-Oct-30 17:27N 29°52' W 089°56'0 0.0
2018-Oct-30 17:00N 29°52' W 089°56'0 0.0
2018-Oct-30 16:24N 29°52' W 089°56'0 0.0
2018-Oct-30 16:00N 29°52' W 089°56'0 0.0
2018-Oct-30 15:30N 29°52' W 089°56'0 0.0
2018-Oct-30 14:54N 29°52' W 089°56'0 0.0
2018-Oct-30 14:02N 29°52' W 089°56'0 0.0
2018-Oct-29 19:41N 29°52' W 089°56'0 0.0
2018-Oct-29 19:29N 29°52' W 089°56'0 0.0
2018-Oct-29 19:02N 29°52' W 089°56'0 0.0
2018-Oct-29 18:53N 29°52' W 089°56'0 0.0
2018-Oct-29 18:29N 29°52' W 089°56'0 0.0
2018-Oct-29 18:02N 29°52' W 089°56'0 0.1
2018-Oct-29 17:59N 29°52' W 089°56'0 0.0
2018-Oct-29 17:29N 29°52' W 089°56'  
Track history (hours):
 
Tides and Currents Weather Stations Pressure Air Temp Water Temp Dewpoint Dewpoint Depression Visibility Wind Speed Wind Dir Waves Ship Positions

Endeavour

Operator: Lindblad Expeditions

Last reported at 2018-Nov-08 17:23 UTC. Time now 2018-Dec-11 06:54 UTC.
Position N 29°60' W 090°28'.
Warning: this ship's position is 32 days out of date.

Length 190 m; draft 6.7 m.

Type: Cargo ship. MMSI: 311000239.

Date/timePositionNaut miles runAvg speedWind from/ knotsBaromVisibWave heightAir tempDewpointWater temp
2018-Nov-08 17:23N 29°60' W 090°28'3 8.7
2018-Nov-08 17:02N 29°59' W 090°25'4 7.5
2018-Nov-08 16:32N 29°56' W 090°22'3 5.8
2018-Nov-08 16:00N 29°57' W 090°18'0 0.1
2018-Nov-08 15:30N 29°57' W 090°18'0 0.0
2018-Nov-08 15:00N 29°57' W 090°18'0 0.0
2018-Nov-08 14:30N 29°57' W 090°18'0 0.0
2018-Nov-08 14:00N 29°57' W 090°18'0 0.0
2018-Nov-08 13:30N 29°57' W 090°18'0 0.0
2018-Nov-08 13:00N 29°57' W 090°18'0 0.0
2018-Nov-08 12:27N 29°57' W 090°18'0 0.0
2018-Nov-08 12:00N 29°57' W 090°18'0 0.0
2018-Nov-08 11:30N 29°57' W 090°18'0 0.0
2018-Nov-08 10:57N 29°57' W 090°18'0 0.0
2018-Nov-08 10:27N 29°57' W 090°18'0 0.0
2018-Nov-08 09:54N 29°57' W 090°18'0 0.0
2018-Nov-08 09:27N 29°57' W 090°18'0 0.0
2018-Nov-08 08:57N 29°57' W 090°18'0 0.0
2018-Nov-08 08:27N 29°57' W 090°18'0 0.0
2018-Nov-08 08:00N 29°57' W 090°18'0 0.0
2018-Nov-08 07:30N 29°57' W 090°18'0 0.0
2018-Nov-08 07:00N 29°57' W 090°18'0 0.0
2018-Nov-08 06:30N 29°57' W 090°18'0 0.0
2018-Nov-08 06:00N 29°57' W 090°18'0 0.0
2018-Nov-08 05:30N 29°57' W 090°18'0 0.0
2018-Nov-08 05:00N 29°57' W 090°18'0 0.0
2018-Nov-08 04:21N 29°57' W 090°18'0 0.0
2018-Nov-08 03:54N 29°57' W 090°18'0 0.0
2018-Nov-08 03:30N 29°57' W 090°18'0 0.0
2018-Nov-08 03:00N 29°57' W 090°18'0 0.0
2018-Nov-08 02:30N 29°57' W 090°18'0 0.0
2018-Nov-08 01:54N 29°57' W 090°18'0 0.0
2018-Nov-08 01:30N 29°57' W 090°18'0 0.0
2018-Nov-08 01:03N 29°57' W 090°18'0 0.2
2018-Nov-08 00:43N 29°57' W 090°18'0 1.9
2018-Nov-08 00:32N 29°57' W 090°18'0 2.6
2018-Nov-08 00:29N 29°57' W 090°18'2 3.7
2018-Nov-08 00:02N 29°58' W 090°16'3 7.1
2018-Nov-07 23:33N 29°56' W 090°13'4 7.6
2018-Nov-07 23:03N 29°57' W 090°09'4 7.4
2018-Nov-07 22:33N 29°55' W 090°06'4 7.7
2018-Nov-07 22:02N 29°58' W 090°03'2 4.4
2018-Nov-07 21:32N 29°57' W 090°01'1 2.9
2018-Nov-07 21:02N 29°56' W 089°59'4 7.2
2018-Nov-07 20:32N 29°55' W 089°55'3 5.8
2018-Nov-07 20:02N 29°52' W 089°56'0 0.2
2018-Nov-07 19:30N 29°52' W 089°56'0 0.0
2018-Nov-07 18:57N 29°52' W 089°56'0 0.0
2018-Nov-07 18:24N 29°52' W 089°56'0 0.0
2018-Nov-07 17:57N 29°52' W 089°56'0 0.0
2018-Nov-07 17:27N 29°52' W 089°56'0 0.0
2018-Nov-07 17:00N 29°52' W 089°56'0 0.0
2018-Nov-07 16:30N 29°52' W 089°56'0 0.0
2018-Nov-07 15:54N 29°52' W 089°56'0 0.0
2018-Nov-07 15:30N 29°52' W 089°56'0 0.0
2018-Nov-07 15:00N 29°52' W 089°56'0 0.0
2018-Nov-07 14:27N 29°52' W 089°56'0 0.0
2018-Nov-07 14:00N 29°52' W 089°56'0 0.0
2018-Nov-07 13:27N 29°52' W 089°56'0 0.0
2018-Nov-07 13:00N 29°52' W 089°56'0 0.0
2018-Nov-07 12:27N 29°52' W 089°56'0 0.0
2018-Nov-07 11:57N 29°52' W 089°56'0 0.0
2018-Nov-07 11:30N 29°52' W 089°56'0 0.0
2018-Nov-07 11:00N 29°52' W 089°56'0 0.0
2018-Nov-07 10:27N 29°52' W 089°56'0 0.0
2018-Nov-07 09:57N 29°52' W 089°56'0 0.0
2018-Nov-07 09:18N 29°52' W 089°56'0 0.0
2018-Nov-07 08:57N 29°52' W 089°56'0 0.0
2018-Nov-07 08:30N 29°52' W 089°56'0 0.0
2018-Nov-07 07:54N 29°52' W 089°56'0 0.0
2018-Nov-07 07:27N 29°52' W 089°56'0 0.0
2018-Nov-07 07:00N 29°52' W 089°56'0 0.0
2018-Nov-07 06:30N 29°52' W 089°56'0 0.0
2018-Nov-07 06:00N 29°52' W 089°56'0 0.0
2018-Nov-07 05:27N 29°52' W 089°56'0 0.0
2018-Nov-07 04:57N 29°52' W 089°56'0 0.0
2018-Nov-07 04:30N 29°52' W 089°56'0 0.0
2018-Nov-06 23:30N 29°52' W 089°56'0 0.0
2018-Nov-06 23:03N 29°52' W 089°56'0 0.1
2018-Nov-06 23:00N 29°52' W 089°56'0 0.0
2018-Nov-06 21:57N 29°52' W 089°56'0 0.0
2018-Nov-06 21:30N 29°52' W 089°56'0 0.0
2018-Nov-06 21:03N 29°52' W 089°56'0 0.0
2018-Nov-06 20:54N 29°52' W 089°56'0 0.0
2018-Nov-06 20:30N 29°52' W 089°56'0 0.0
2018-Nov-06 20:03N 29°52' W 089°56'0 0.0
2018-Nov-06 19:57N 29°52' W 089°56'0 0.0
2018-Nov-06 19:30N 29°52' W 089°56'0 0.0
2018-Nov-06 19:03N 29°52' W 089°56'0 0.1
2018-Nov-06 19:00N 29°52' W 089°56'0 0.0
2018-Nov-06 18:30N 29°52' W 089°56'0 0.0
2018-Nov-06 18:03N 29°52' W 089°56'0 0.0
2018-Nov-06 18:00N 29°52' W 089°56'0 0.0
2018-Nov-06 17:30N 29°52' W 089°56'0 0.0
2018-Nov-06 16:57N 29°52' W 089°56'0 0.0
2018-Nov-06 16:30N 29°52' W 089°56'0 0.0
2018-Nov-06 16:03N 29°52' W 089°56'0 0.0
2018-Nov-06 15:51N 29°52' W 089°56'0 0.0
2018-Nov-06 15:30N 29°52' W 089°56'0 0.0
2018-Nov-06 14:57N 29°52' W 089°56'0 0.0
2018-Nov-06 14:27N 29°52' W 089°56'0 0.0
2018-Nov-06 14:03N 29°52' W 089°56'0 0.2
2018-Nov-06 14:00N 29°52' W 089°56'0 0.0
2018-Nov-06 12:24N 29°52' W 089°56'0 0.0
2018-Nov-06 12:03N 29°52' W 089°56'0 0.1
2018-Nov-06 11:57N 29°52' W 089°56'0 0.0
2018-Nov-06 11:27N 29°52' W 089°56'0 0.0
2018-Nov-06 11:03N 29°52' W 089°56'0 0.1
2018-Nov-06 11:00N 29°52' W 089°56'0 0.0
2018-Nov-06 10:30N 29°52' W 089°56'0 0.0
2018-Nov-06 10:03N 29°52' W 089°56'0 0.1
2018-Nov-06 09:57N 29°52' W 089°56'0 0.0
2018-Nov-06 09:27N 29°52' W 089°56'0 0.0
2018-Nov-06 09:03N 29°52' W 089°56'0 0.0
2018-Nov-06 09:00N 29°52' W 089°56'0 0.0
2018-Nov-06 08:30N 29°52' W 089°56'0 0.0
2018-Nov-06 08:03N 29°52' W 089°56'0 0.0
2018-Nov-06 07:57N 29°52' W 089°56'0 0.0
2018-Nov-06 07:30N 29°52' W 089°56'0 0.0
2018-Nov-06 07:03N 29°52' W 089°56'0 0.0
2018-Nov-06 07:00N 29°52' W 089°56'0 0.0
2018-Nov-06 06:30N 29°52' W 089°56'0 0.0
2018-Nov-06 06:00N 29°52' W 089°56'0 0.0
2018-Nov-06 05:30N 29°52' W 089°56'0 0.0
2018-Nov-06 05:03N 29°52' W 089°56'0 0.0
2018-Nov-06 05:00N 29°52' W 089°56'0 0.0
2018-Nov-06 04:30N 29°52' W 089°56'0 0.0
2018-Nov-06 04:03N 29°52' W 089°56'0 0.0
2018-Nov-06 04:00N 29°52' W 089°56'0 0.0
2018-Nov-06 03:30N 29°52' W 089°56'0 0.0
2018-Nov-06 03:03N 29°52' W 089°56'0 0.1
2018-Nov-06 02:57N 29°52' W 089°56'0 0.0
2018-Nov-06 02:24N 29°52' W 089°56'0 0.0
2018-Nov-06 01:54N 29°52' W 089°56'0 0.0
2018-Nov-06 01:27N 29°52' W 089°56'0 0.0
2018-Nov-06 01:03N 29°52' W 089°56'0 0.0
2018-Nov-05 23:30N 29°52' W 089°56'0 0.0
2018-Nov-05 23:03N 29°52' W 089°56'0 0.1
2018-Nov-05 23:00N 29°52' W 089°56'0 0.0
2018-Nov-05 22:27N 29°52' W 089°56'0 0.0
2018-Nov-05 22:03N 29°52' W 089°56'0 0.0
2018-Nov-05 21:57N 29°52' W 089°56'0 0.0
2018-Nov-05 21:27N 29°52' W 089°56'0 0.0
2018-Nov-05 20:57N 29°52' W 089°56'0 0.0
2018-Nov-05 20:27N 29°52' W 089°56'0 0.0
2018-Nov-05 20:00N 29°52' W 089°56'0 0.0
2018-Nov-05 19:27N 29°52' W 089°56'0 0.0
2018-Nov-05 19:03N 29°52' W 089°56'0 0.1
2018-Nov-05 18:57N 29°52' W 089°56'0 0.0
2018-Nov-05 18:30N 29°52' W 089°56'0 0.0
2018-Nov-05 18:03N 29°52' W 089°56'0 0.2
2018-Nov-05 18:00N 29°52' W 089°56'0 0.0
2018-Nov-05 17:30N 29°52' W 089°56'0 0.0
2018-Nov-05 17:03N 29°52' W 089°56'0 0.1
2018-Nov-05 17:00N 29°52' W 089°56'0 0.0
2018-Nov-05 16:30N 29°52' W 089°56'0 0.0
2018-Nov-05 16:03N 29°52' W 089°56'0 0.0
2018-Nov-05 15:57N 29°52' W 089°56'0 0.0
2018-Nov-05 15:30N 29°52' W 089°56'0 0.0
2018-Nov-05 15:03N 29°52' W 089°56'0 0.0
2018-Nov-05 15:00N 29°52' W 089°56'0 0.0
2018-Nov-05 14:30N 29°52' W 089°56'0 0.0
2018-Nov-05 14:00N 29°52' W 089°56'0 0.0
2018-Nov-05 13:03N 29°52' W 089°56'0 0.0
2018-Nov-05 12:54N 29°52' W 089°56'0 0.0
2018-Nov-05 12:27N 29°52' W 089°56'0 0.0
2018-Nov-05 12:03N 29°52' W 089°56'0 0.0
2018-Nov-05 12:00N 29°52' W 089°56'0 0.0
2018-Nov-05 11:30N 29°52' W 089°56'0 0.0
2018-Nov-05 11:00N 29°52' W 089°56'0 0.0
2018-Nov-05 10:30N 29°52' W 089°56'0 0.0
2018-Nov-05 10:03N 29°52' W 089°56'0 0.0
2018-Nov-05 10:00N 29°52' W 089°56'0 0.0
2018-Nov-05 09:30N 29°52' W 089°56'0 0.0
2018-Nov-05 09:03N 29°52' W 089°56'0 0.2
2018-Nov-05 09:00N 29°52' W 089°56'0 0.0
2018-Nov-05 08:30N 29°52' W 089°56'0 0.0
2018-Nov-05 08:03N 29°52' W 089°56'0 0.0
2018-Nov-05 08:00N 29°52' W 089°56'0 0.0
2018-Nov-05 07:30N 29°52' W 089°56'0 0.0
2018-Nov-05 07:03N 29°52' W 089°56'0 0.0
2018-Nov-05 07:00N 29°52' W 089°56'0 0.0
2018-Nov-05 06:30N 29°52' W 089°56'0 0.0
2018-Nov-05 05:57N 29°52' W 089°56'0 0.0
2018-Nov-05 05:30N 29°52' W 089°56'0 0.0
2018-Nov-05 05:00N 29°52' W 089°56'0 0.0
2018-Nov-05 04:30N 29°52' W 089°56'0 0.0
2018-Nov-05 04:00N 29°52' W 089°56'0 0.0
2018-Nov-05 03:27N 29°52' W 089°56'0 0.0
2018-Nov-05 03:03N 29°52' W 089°56'0 0.0
2018-Nov-05 03:00N 29°52' W 089°56'0 0.0
2018-Nov-05 02:30N 29°52' W 089°56'0 0.0
2018-Nov-05 02:03N 29°52' W 089°56'0 0.0
2018-Nov-05 01:45N 29°52' W 089°56'0 0.0
2018-Nov-05 01:30N 29°52' W 089°56'0 0.0
2018-Nov-05 01:03N 29°52' W 089°56'0 0.1
2018-Nov-05 00:57N 29°52' W 089°56'0 0.0
2018-Nov-05 00:30N 29°52' W 089°56'0 0.0
2018-Nov-04 23:54N 29°52' W 089°56'0 0.0
2018-Nov-04 23:24N 29°52' W 089°56'0 0.0
2018-Nov-04 23:03N 29°52' W 089°56'0 0.1
2018-Nov-04 23:00N 29°52' W 089°56'0 0.0
2018-Nov-04 22:27N 29°52' W 089°56'0 0.0
2018-Nov-04 22:03N 29°52' W 089°56'0 0.0
2018-Nov-04 22:00N 29°52' W 089°56'0 0.0
2018-Nov-04 21:30N 29°52' W 089°56'0 0.0
2018-Nov-04 21:03N 29°52' W 089°56'0 0.0
2018-Nov-04 20:42N 29°52' W 089°56'0 0.0
2018-Nov-04 20:30N 29°52' W 089°56'0 0.0
2018-Nov-04 19:57N 29°52' W 089°56'0 0.0
2018-Nov-04 19:27N 29°52' W 089°56'0 0.0
2018-Nov-04 19:03N 29°52' W 089°56'0 0.0
2018-Nov-04 18:51N 29°52' W 089°56'0 0.0
2018-Nov-04 18:30N 29°52' W 089°56'0 0.0
2018-Nov-04 18:03N 29°52' W 089°56'0 0.0
2018-Nov-04 17:57N 29°52' W 089°56'0 0.0
2018-Nov-04 17:30N 29°52' W 089°56'0 0.0
2018-Nov-04 16:57N 29°52' W 089°56'0 0.0
2018-Nov-04 16:21N 29°52' W 089°56'0 0.0
2018-Nov-04 16:00N 29°52' W 089°56'0 0.0
2018-Nov-04 15:27N 29°52' W 089°56'0 0.0
2018-Nov-04 15:03N 29°52' W 089°56'0 0.0
2018-Nov-04 14:57N 29°52' W 089°56'0 0.0
2018-Nov-04 14:30N 29°52' W 089°56'0 0.0
2018-Nov-04 14:03N 29°52' W 089°56'0 0.0
2018-Nov-04 14:00N 29°52' W 089°56'0 0.0
2018-Nov-04 13:27N 29°52' W 089°56'0 0.0
2018-Nov-04 12:57N 29°52' W 089°56'0 0.0
2018-Nov-04 12:30N 29°52' W 089°56'0 0.0
2018-Nov-04 12:03N 29°52' W 089°56'0 0.1
2018-Nov-04 12:00N 29°52' W 089°56'0 0.0
2018-Nov-04 11:30N 29°52' W 089°56'0 0.0
2018-Nov-04 11:03N 29°52' W 089°56'0 0.1
2018-Nov-04 11:00N 29°52' W 089°56'0 0.0
2018-Nov-04 10:30N 29°52' W 089°56'0 0.0
2018-Nov-04 10:03N 29°52' W 089°56'0 0.1
2018-Nov-04 10:00N 29°52' W 089°56'0 0.0
2018-Nov-04 09:27N 29°52' W 089°56'0 0.0
2018-Nov-04 09:03N 29°52' W 089°56'0 0.0
2018-Nov-04 09:00N 29°52' W 089°56'0 0.0
2018-Nov-04 08:30N 29°52' W 089°56'0 0.0
2018-Nov-04 08:03N 29°52' W 089°56'0 0.0
2018-Nov-04 07:57N 29°52' W 089°56'0 0.0
2018-Nov-04 07:30N 29°52' W 089°56'0 0.0
2018-Nov-04 07:03N 29°52' W 089°56'0 0.0
2018-Nov-04 07:00N 29°52' W 089°56'0 0.0
2018-Nov-04 06:30N 29°52' W 089°56'0 0.0
2018-Nov-04 06:03N 29°52' W 089°56'0 0.0
2018-Nov-04 05:48N 29°52' W 089°56'0 0.0
2018-Nov-04 05:30N 29°52' W 089°56'0 0.0
2018-Nov-04 05:03N 29°52' W 089°56'0 0.2
2018-Nov-04 05:00N 29°52' W 089°56'0 0.0
2018-Nov-04 04:27N 29°52' W 089°56'0 0.0
2018-Nov-04 04:03N 29°52' W 089°56'0 0.0
2018-Nov-04 03:54N 29°52' W 089°56'0 0.0
2018-Nov-04 03:27N 29°52' W 089°56'0 0.0
2018-Nov-04 03:00N 29°52' W 089°56'0 0.0
2018-Nov-04 02:30N 29°52' W 089°56'0 0.0
2018-Nov-04 02:03N 29°52' W 089°56'0 0.1
2018-Nov-04 02:00N 29°52' W 089°56'0 0.0
2018-Nov-04 01:24N 29°52' W 089°56'0 0.0
2018-Nov-04 01:03N 29°52' W 089°56'0 0.0
2018-Nov-04 00:57N 29°52' W 089°56'0 0.0
2018-Nov-04 00:30N 29°52' W 089°56'0 0.0
2018-Nov-04 00:00N 29°52' W 089°56'0 0.0
2018-Nov-03 23:27N 29°52' W 089°56'0 0.0
2018-Nov-03 23:03N 29°52' W 089°56'0 0.0
2018-Nov-03 23:00N 29°52' W 089°56'0 0.0
2018-Nov-03 22:30N 29°52' W 089°56'0 0.0
2018-Nov-03 20:27N 29°52' W 089°56'0 0.0
2018-Nov-03 20:03N 29°52' W 089°56'0 0.1
2018-Nov-03 19:57N 29°52' W 089°56'0 0.0
2018-Nov-03 19:24N 29°52' W 089°56'0 0.0
2018-Nov-03 19:03N 29°52' W 089°56'0 0.0
2018-Nov-03 18:54N 29°52' W 089°56'0 0.0
2018-Nov-03 18:27N 29°52' W 089°56'0 0.0
2018-Nov-03 18:00N 29°52' W 089°56'0 0.0
2018-Nov-03 17:27N 29°52' W 089°56'0 0.0
2018-Nov-03 17:03N 29°52' W 089°56'0 0.1
2018-Nov-03 17:00N 29°52' W 089°56'0 0.0
2018-Nov-03 16:30N 29°52' W 089°56'0 0.0
2018-Nov-03 16:03N 29°52' W 089°56'0 0.1
2018-Nov-03 16:00N 29°52' W 089°56'0 0.0
2018-Nov-03 15:30N 29°52' W 089°56'0 0.0
2018-Nov-03 15:03N 29°52' W 089°56'0 0.1
2018-Nov-03 15:00N 29°52' W 089°56'0 0.0
2018-Nov-03 14:30N 29°52' W 089°56'0 0.0
2018-Nov-03 14:03N 29°52' W 089°56'0 0.0
2018-Nov-03 14:00N 29°52' W 089°56'0 0.0
2018-Nov-03 13:30N 29°52' W 089°56'0 0.0
2018-Nov-03 13:03N 29°52' W 089°56'0 0.0
2018-Nov-03 13:00N 29°52' W 089°56'0 0.0
2018-Nov-03 12:30N 29°52' W 089°56'0 0.0
2018-Nov-03 12:03N 29°52' W 089°56'0 0.1
2018-Nov-03 11:57N 29°52' W 089°56'0 0.0
2018-Nov-03 11:30N 29°52' W 089°56'0 0.0
2018-Nov-03 11:00N 29°52' W 089°56'0 0.0
2018-Nov-03 10:27N 29°52' W 089°56'0 0.0
2018-Nov-03 09:57N 29°52' W 089°56'0 0.0
2018-Nov-03 09:30N 29°52' W 089°56'0 0.0
2018-Nov-03 09:03N 29°52' W 089°56'0 0.0
2018-Nov-03 08:54N 29°52' W 089°56'0 0.0
2018-Nov-03 08:30N 29°52' W 089°56'0 0.0
2018-Nov-03 07:54N 29°52' W 089°56'0 0.0
2018-Nov-03 07:24N 29°52' W 089°56'0 0.0
2018-Nov-03 07:03N 29°52' W 089°56'0 0.0
2018-Nov-03 07:00N 29°52' W 089°56'0 0.0
2018-Nov-03 06:30N 29°52' W 089°56'0 0.0
2018-Nov-03 06:03N 29°52' W 089°56'0 0.0
2018-Nov-03 05:57N 29°52' W 089°56'0 0.0
2018-Nov-03 05:30N 29°52' W 089°56'0 0.0
2018-Nov-03 05:00N 29°52' W 089°56'0 0.0
2018-Nov-03 04:30N 29°52' W 089°56'0 0.0
2018-Nov-03 04:03N 29°52' W 089°56'0 0.0
2018-Nov-03 03:54N 29°52' W 089°56'0 0.0
2018-Nov-03 03:30N 29°52' W 089°56'0 0.0
2018-Nov-03 03:00N 29°52' W 089°56'0 0.0
2018-Nov-03 02:21N 29°52' W 089°56'0 0.0
2018-Nov-03 02:00N 29°52' W 089°56'0 0.0
2018-Nov-03 01:30N 29°52' W 089°56'0 0.0
2018-Nov-03 01:03N 29°52' W 089°56'0 0.0
2018-Nov-03 01:00N 29°52' W 089°56'0 0.0
2018-Nov-03 00:24N 29°52' W 089°56'0 0.0
2018-Nov-03 00:03N 29°52' W 089°56'0 0.0
2018-Nov-03 00:00N 29°52' W 089°56'0 0.0
2018-Nov-02 23:30N 29°52' W 089°56'0 0.0
2018-Nov-02 23:00N 29°52' W 089°56'0 0.0
2018-Nov-02 22:27N 29°52' W 089°56'0 0.0
2018-Nov-02 22:03N 29°52' W 089°56'0 0.2
2018-Nov-02 22:00N 29°52' W 089°56'0 0.0
2018-Nov-02 21:30N 29°52' W 089°56'0 0.0
2018-Nov-02 21:03N 29°52' W 089°56'0 0.1
2018-Nov-02 21:00N 29°52' W 089°56'0 0.0
2018-Nov-02 20:27N 29°52' W 089°56'0 0.0
2018-Nov-02 20:03N 29°52' W 089°56'0 0.1
2018-Nov-02 20:00N 29°52' W 089°56'0 0.0
2018-Nov-02 19:27N 29°52' W 089°56'0 0.0
2018-Nov-02 19:03N 29°52' W 089°56'0 0.1
2018-Nov-02 19:00N 29°52' W 089°56'0 0.0
2018-Nov-02 18:30N 29°52' W 089°56'0 0.0
2018-Nov-02 18:03N 29°52' W 089°56'0 0.2
2018-Nov-02 18:00N 29°52' W 089°56'0 0.0
2018-Nov-02 17:30N 29°52' W 089°56'0 0.0
2018-Nov-02 17:03N 29°52' W 089°56'0 0.0
2018-Nov-02 16:54N 29°52' W 089°56'0 0.0
2018-Nov-02 16:30N 29°52' W 089°56'0 0.0
2018-Nov-02 16:03N 29°52' W 089°56'0 0.0
2018-Nov-02 15:57N 29°52' W 089°56'0 0.0
2018-Nov-02 15:30N 29°52' W 089°56'0 0.0
2018-Nov-02 15:03N 29°52' W 089°56'0 0.0
2018-Nov-02 15:00N 29°52' W 089°56'0 0.0
2018-Nov-02 14:30N 29°52' W 089°56'0 0.0
2018-Nov-02 14:00N 29°52' W 089°56'0 0.0
2018-Nov-02 13:27N 29°52' W 089°56'0 0.0
2018-Nov-02 13:03N 29°52' W 089°56'0 0.0
2018-Nov-02 12:57N 29°52' W 089°56'0 0.0
2018-Nov-02 12:27N 29°52' W 089°56'0 0.0
2018-Nov-02 12:03N 29°52' W 089°56'0 0.1
2018-Nov-02 12:00N 29°52' W 089°56'0 0.0
2018-Nov-02 11:30N 29°52' W 089°56'0 0.0
2018-Nov-02 11:03N 29°52' W 089°56'0 0.0
2018-Nov-02 10:51N 29°52' W 089°56'0 0.0
2018-Nov-02 10:27N 29°52' W 089°56'0 0.0
2018-Nov-02 10:00N 29°52' W 089°56'0 0.0
2018-Nov-02 09:27N 29°52' W 089°56'0 0.0
2018-Nov-02 09:03N 29°52' W 089°56'0 0.0
2018-Nov-02 09:00N 29°52' W 089°56'0 0.0
2018-Nov-02 08:30N 29°52' W 089°56'0 0.0
2018-Nov-02 08:00N 29°52' W 089°56'0 0.0
2018-Nov-02 07:27N 29°52' W 089°56'0 0.0
2018-Nov-02 07:03N 29°52' W 089°56'0 0.1
2018-Nov-02 07:00N 29°52' W 089°56'0 0.0
2018-Nov-02 06:27N 29°52' W 089°56'0 0.0
2018-Nov-02 06:03N 29°52' W 089°56'0 0.1
2018-Nov-02 05:57N 29°52' W 089°56'0 0.0
2018-Nov-02 05:27N 29°52' W 089°56'0 0.1
2018-Nov-02 05:00N 29°52' W 089°56'0 0.0
2018-Nov-02 04:27N 29°52' W 089°56'0 0.0
2018-Nov-02 04:03N 29°52' W 089°56'0 0.1
2018-Nov-02 04:00N 29°52' W 089°56'0 0.0
2018-Nov-02 03:30N 29°52' W 089°56'0 0.0
2018-Nov-02 03:03N 29°52' W 089°56'0 0.0
2018-Nov-02 03:00N 29°52' W 089°56'0 0.0
2018-Nov-02 02:27N 29°52' W 089°56'0 0.0
2018-Nov-02 02:03N 29°52' W 089°56'0 0.0
2018-Nov-02 02:00N 29°52' W 089°56'0 0.0
2018-Nov-02 01:30N 29°52' W 089°56'0 0.0
2018-Nov-02 01:03N 29°52' W 089°56'0 0.1
2018-Nov-02 01:00N 29°52' W 089°56'0 0.0
2018-Nov-02 00:54N 29°52' W 089°56'0 0.0
2018-Nov-02 00:36N 29°52' W 089°56'0 0.0
2018-Nov-02 00:27N 29°52' W 089°56'0 0.0
2018-Nov-02 00:03N 29°52' W 089°56'0 0.0
2018-Nov-02 00:00N 29°52' W 089°56'0 0.0
2018-Nov-01 23:30N 29°52' W 089°56'0 0.0
2018-Nov-01 23:03N 29°52' W 089°56'0 0.0
2018-Nov-01 23:00N 29°52' W 089°56'0 0.0
2018-Nov-01 22:27N 29°52' W 089°56'0 0.0
2018-Nov-01 22:00N 29°52' W 089°56'0 0.0
2018-Nov-01 21:30N 29°52' W 089°56'0 0.0
2018-Nov-01 21:03N 29°52' W 089°56'0 0.0
2018-Nov-01 20:54N 29°52' W 089°56'0 0.0
2018-Nov-01 20:30N 29°52' W 089°56'0 0.0
2018-Nov-01 20:03N 29°52' W 089°56'0 0.2
2018-Nov-01 20:00N 29°52' W 089°56'0 0.0
2018-Nov-01 19:30N 29°52' W 089°56'0 0.0
2018-Nov-01 18:57N 29°52' W 089°56'0 0.0
2018-Nov-01 18:30N 29°52' W 089°56'0 0.0
2018-Nov-01 18:03N 29°52' W 089°56'0 0.1
2018-Nov-01 18:00N 29°52' W 089°56'0 0.0
2018-Nov-01 17:30N 29°52' W 089°56'0 0.0
2018-Nov-01 17:03N 29°52' W 089°56'0 0.0
2018-Nov-01 17:00N 29°52' W 089°56'0 0.0
2018-Nov-01 16:27N 29°52' W 089°56'0 0.0
2018-Nov-01 15:54N 29°52' W 089°56'0 0.0
2018-Nov-01 15:30N 29°52' W 089°56'0 0.0
2018-Nov-01 15:03N 29°52' W 089°56'0 0.2
2018-Nov-01 15:00N 29°52' W 089°56'0 0.0
2018-Nov-01 13:57N 29°52' W 089°56'0 0.0
2018-Nov-01 13:27N 29°52' W 089°56'0 0.0
2018-Nov-01 13:03N 29°52' W 089°56'0 0.0
2018-Nov-01 13:00N 29°52' W 089°56'0 0.0
2018-Nov-01 12:30N 29°52' W 089°56'0 0.0
2018-Nov-01 12:03N 29°52' W 089°56'0 0.1
2018-Nov-01 11:57N 29°52' W 089°56'0 0.0
2018-Nov-01 11:27N 29°52' W 089°56'0 0.0
2018-Nov-01 11:03N 29°52' W 089°56'0 0.1
2018-Nov-01 11:00N 29°52' W 089°56'0 0.1
2018-Nov-01 10:24N 29°52' W 089°56'0 0.1
2018-Nov-01 10:03N 29°52' W 089°56'0 0.1
2018-Nov-01 10:00N 29°52' W 089°56'0 0.0
2018-Nov-01 09:30N 29°52' W 089°56'0 0.1
2018-Nov-01 09:03N 29°52' W 089°56'0 0.1
2018-Nov-01 08:57N 29°52' W 089°56'0 0.0
2018-Nov-01 08:27N 29°52' W 089°56'0 0.0
2018-Nov-01 08:03N 29°52' W 089°56'0 0.2
2018-Nov-01 08:00N 29°52' W 089°56'0 0.0
2018-Nov-01 07:30N 29°52' W 089°56'0 0.0
2018-Nov-01 07:03N 29°52' W 089°56'0 0.1
2018-Nov-01 07:00N 29°52' W 089°56'0 0.0
2018-Nov-01 06:27N 29°52' W 089°56'0 0.0
2018-Nov-01 06:03N 29°52' W 089°56'0 0.1
2018-Nov-01 05:57N 29°52' W 089°56'0 0.0
2018-Nov-01 05:30N 29°52' W 089°56'0 0.0
2018-Nov-01 05:03N 29°52' W 089°56'0 0.1
2018-Nov-01 05:00N 29°52' W 089°56'0 0.0
2018-Nov-01 04:30N 29°52' W 089°56'0 0.0
2018-Nov-01 04:03N 29°52' W 089°56'0 0.0
2018-Nov-01 04:00N 29°52' W 089°56'0 0.0
2018-Nov-01 03:30N 29°52' W 089°56'0 0.0
2018-Nov-01 02:57N 29°52' W 089°56'0 0.0
2018-Nov-01 02:30N 29°52' W 089°56'0 0.0
2018-Nov-01 02:00N 29°52' W 089°56'0 0.0
2018-Nov-01 01:24N 29°52' W 089°56'0 0.0
2018-Nov-01 01:03N 29°52' W 089°56'0 0.0
2018-Nov-01 01:00N 29°52' W 089°56'0 0.0
2018-Nov-01 00:30N 29°52' W 089°56'0 0.0
2018-Oct-31 23:51N 29°52' W 089°56'0 0.0
2018-Oct-31 23:27N 29°52' W 089°56'0 0.0
2018-Oct-31 23:00N 29°52' W 089°56'0 0.0
2018-Oct-31 22:27N 29°52' W 089°56'0 0.0
2018-Oct-31 22:00N 29°52' W 089°56'0 0.0
2018-Oct-31 21:24N 29°52' W 089°56'0 0.0
2018-Oct-31 21:03N 29°52' W 089°56'0 0.1
2018-Oct-31 21:00N 29°52' W 089°56'0 0.0
2018-Oct-31 20:30N 29°52' W 089°56'0 0.0
2018-Oct-31 20:00N 29°52' W 089°56'0 0.0
2018-Oct-31 19:30N 29°52' W 089°56'0 0.0
2018-Oct-31 19:03N 29°52' W 089°56'0 0.1
2018-Oct-31 18:57N 29°52' W 089°56'0 0.0
2018-Oct-31 18:27N 29°52' W 089°56'0 0.0
2018-Oct-31 18:03N 29°52' W 089°56'0 0.2
2018-Oct-31 18:00N 29°52' W 089°56'0 0.0
2018-Oct-31 17:30N 29°52' W 089°56'0 0.0
2018-Oct-31 16:54N 29°52' W 089°56'0 0.0
2018-Oct-31 16:27N 29°52' W 089°56'0 0.0
2018-Oct-31 16:03N 29°52' W 089°56'0 0.1
2018-Oct-31 16:00N 29°52' W 089°56'0 0.0
2018-Oct-31 15:30N 29°52' W 089°56'0 0.0
2018-Oct-31 14:57N 29°52' W 089°56'0 0.0
2018-Oct-31 14:03N 29°52' W 089°56'0 0.0
2018-Oct-31 13:57N 29°52' W 089°56'0 0.0
2018-Oct-31 13:30N 29°52' W 089°56'0 0.0
2018-Oct-31 13:00N 29°52' W 089°56'0 0.0
2018-Oct-31 12:27N 29°52' W 089°56'0 0.0
2018-Oct-31 12:03N 29°52' W 089°56'0 0.1
2018-Oct-31 12:00N 29°52' W 089°56'0 0.0
2018-Oct-31 11:30N 29°52' W 089°56'0 0.0
2018-Oct-31 11:03N 29°52' W 089°56'0 0.1
2018-Oct-31 10:57N 29°52' W 089°56'0 0.0
2018-Oct-31 10:30N 29°52' W 089°56'0 0.0
2018-Oct-31 10:00N 29°52' W 089°56'0 0.0
2018-Oct-31 09:30N 29°52' W 089°56'0 0.0
2018-Oct-31 09:03N 29°52' W 089°56'0 0.0
2018-Oct-31 09:00N 29°52' W 089°56'0 0.0
2018-Oct-31 08:18N 29°52' W 089°56'0 0.0
2018-Oct-31 08:00N 29°52' W 089°56'0 0.0
2018-Oct-31 07:30N 29°52' W 089°56'0 0.0
2018-Oct-31 07:03N 29°52' W 089°56'0 0.1
2018-Oct-31 06:57N 29°52' W 089°56'0 0.0
2018-Oct-31 06:30N 29°52' W 089°56'0 0.0
2018-Oct-31 06:00N 29°52' W 089°56'0 0.0
2018-Oct-31 05:30N 29°52' W 089°56'0 0.0
2018-Oct-31 05:03N 29°52' W 089°56'0 0.0
2018-Oct-31 05:00N 29°52' W 089°56'0 0.0
2018-Oct-31 04:30N 29°52' W 089°56'0 0.0
2018-Oct-31 04:03N 29°52' W 089°56'0 0.1
2018-Oct-31 03:57N 29°52' W 089°56'0 0.0
2018-Oct-31 03:30N 29°52' W 089°56'0 0.0
2018-Oct-31 03:03N 29°52' W 089°56'0 0.0
2018-Oct-31 03:00N 29°52' W 089°56'0 0.0
2018-Oct-31 02:27N 29°52' W 089°56'0 0.0
2018-Oct-31 02:03N 29°52' W 089°56'0 0.1
2018-Oct-31 01:57N 29°52' W 089°56'0 0.0
2018-Oct-31 01:30N 29°52' W 089°56'0 0.0
2018-Oct-31 01:03N 29°52' W 089°56'0 0.0
2018-Oct-31 00:57N 29°52' W 089°56'0 0.0
2018-Oct-31 00:30N 29°52' W 089°56'0 0.0
2018-Oct-30 23:57N 29°52' W 089°56'0 0.0
2018-Oct-30 23:27N 29°52' W 089°56'0 0.0
2018-Oct-30 23:03N 29°52' W 089°56'0 0.0
2018-Oct-30 23:00N 29°52' W 089°56'0 0.0
2018-Oct-30 22:30N 29°52' W 089°56'0 0.0
2018-Oct-30 22:03N 29°52' W 089°56'0 0.0
2018-Oct-30 21:57N 29°52' W 089°56'0 0.0
2018-Oct-30 21:24N 29°52' W 089°56'0 0.0
2018-Oct-30 21:00N 29°52' W 089°56'0 0.0
2018-Oct-30 20:30N 29°52' W 089°56'0 0.0
2018-Oct-30 20:03N 29°52' W 089°56'0 0.0
2018-Oct-30 20:00N 29°52' W 089°56'0 0.0
2018-Oct-30 19:30N 29°52' W 089°56'0 0.0
2018-Oct-30 19:03N 29°52' W 089°56'0 0.0
2018-Oct-30 18:54N 29°52' W 089°56'0 0.0
2018-Oct-30 18:27N 29°52' W 089°56'0 0.0
2018-Oct-30 18:00N 29°52' W 089°56'0 0.0
2018-Oct-30 17:27N 29°52' W 089°56'0 0.0
2018-Oct-30 17:00N 29°52' W 089°56'0 0.0
2018-Oct-30 16:24N 29°52' W 089°56'0 0.0
2018-Oct-30 16:00N 29°52' W 089°56'0 0.0
2018-Oct-30 15:30N 29°52' W 089°56'0 0.0
2018-Oct-30 14:54N 29°52' W 089°56'0 0.0
2018-Oct-30 14:02N 29°52' W 089°56'0 0.0
2018-Oct-29 19:41N 29°52' W 089°56'0 0.0
2018-Oct-29 19:29N 29°52' W 089°56'0 0.0
2018-Oct-29 19:02N 29°52' W 089°56'0 0.0
2018-Oct-29 18:53N 29°52' W 089°56'0 0.0
2018-Oct-29 18:29N 29°52' W 089°56'0 0.0
2018-Oct-29 18:02N 29°52' W 089°56'0 0.1
2018-Oct-29 17:59N 29°52' W 089°56'0 0.0
2018-Oct-29 17:29N 29°52' W 089°56'  

Dump ship's entire track history